sensor_id;sensor_type;location;lat;lon;timestamp;pressure;altitude;pressure_sealevel;temperature;humidity
63493;BME280;49638;47.526;10.028;2023-05-14T00:01:27;91523.97;;;8.29;100.00
63493;BME280;49638;47.526;10.028;2023-05-14T00:04:28;91513.91;;;8.26;100.00
63493;BME280;49638;47.526;10.028;2023-05-14T00:07:28;91522.47;;;8.34;100.00
63493;BME280;49638;47.526;10.028;2023-05-14T00:10:29;91518.00;;;8.34;100.00
63493;BME280;49638;47.526;10.028;2023-05-14T00:13:30;91521.22;;;8.36;100.00
63493;BME280;49638;47.526;10.028;2023-05-14T00:16:30;91520.16;;;8.37;100.00
63493;BME280;49638;47.526;10.028;2023-05-14T00:19:30;91515.25;;;8.41;100.00
63493;BME280;49638;47.526;10.028;2023-05-14T00:22:30;91511.84;;;8.40;100.00
63493;BME280;49638;47.526;10.028;2023-05-14T00:25:31;91518.69;;;8.41;100.00
63493;BME280;49638;47.526;10.028;2023-05-14T00:28:31;91516.84;;;8.42;100.00
63493;BME280;49638;47.526;10.028;2023-05-14T00:31:31;91504.38;;;8.37;100.00
63493;BME280;49638;47.526;10.028;2023-05-14T00:34:31;91515.84;;;8.43;100.00
63493;BME280;49638;47.526;10.028;2023-05-14T00:37:32;91505.78;;;8.40;100.00
63493;BME280;49638;47.526;10.028;2023-05-14T00:40:32;91496.34;;;8.32;100.00
63493;BME280;49638;47.526;10.028;2023-05-14T00:43:33;91513.22;;;8.43;100.00
63493;BME280;49638;47.526;10.028;2023-05-14T00:46:33;91511.38;;;8.43;100.00
63493;BME280;49638;47.526;10.028;2023-05-14T00:49:33;91510.31;;;8.44;100.00
63493;BME280;49638;47.526;10.028;2023-05-14T00:52:35;91507.47;;;8.46;100.00
63493;BME280;49638;47.526;10.028;2023-05-14T00:55:37;91513.06;;;8.49;100.00
63493;BME280;49638;47.526;10.028;2023-05-14T00:58:37;91515.91;;;8.48;100.00
63493;BME280;49638;47.526;10.028;2023-05-14T01:01:38;91500.84;;;8.43;100.00
63493;BME280;49638;47.526;10.028;2023-05-14T01:04:38;91503.81;;;8.47;100.00
63493;BME280;49638;47.526;10.028;2023-05-14T01:07:55;91509.38;;;8.50;100.00
63493;BME280;49638;47.526;10.028;2023-05-14T01:11:06;91506.50;;;8.52;100.00
63493;BME280;49638;47.526;10.028;2023-05-14T01:17:19;91507.09;;;8.54;100.00
63493;BME280;49638;47.526;10.028;2023-05-14T01:20:22;91516.03;;;8.53;100.00
63493;BME280;49638;47.526;10.028;2023-05-14T01:23:22;91509.72;;;8.54;100.00
63493;BME280;49638;47.526;10.028;2023-05-14T01:26:22;91509.72;;;8.54;100.00
63493;BME280;49638;47.526;10.028;2023-05-14T01:29:25;91519.00;;;8.57;100.00
63493;BME280;49638;47.526;10.028;2023-05-14T01:32:27;91510.28;;;8.56;100.00
63493;BME280;49638;47.526;10.028;2023-05-14T01:35:29;91513.94;;;8.55;100.00
63493;BME280;49638;47.526;10.028;2023-05-14T01:38:30;91507.56;;;8.51;100.00
63493;BME280;49638;47.526;10.028;2023-05-14T01:41:33;91507.66;;;8.56;100.00
63493;BME280;49638;47.526;10.028;2023-05-14T01:44:33;91490.16;;;8.50;100.00
63493;BME280;49638;47.526;10.028;2023-05-14T01:47:34;91494.50;;;8.56;100.00
63493;BME280;49638;47.526;10.028;2023-05-14T01:50:34;91490.50;;;8.53;100.00
63493;BME280;49638;47.526;10.028;2023-05-14T01:53:34;91488.72;;;8.59;100.00
63493;BME280;49638;47.526;10.028;2023-05-14T01:56:35;91486.09;;;8.59;100.00
63493;BME280;49638;47.526;10.028;2023-05-14T01:59:35;91478.44;;;8.58;100.00
63493;BME280;49638;47.526;10.028;2023-05-14T02:02:35;91478.91;;;8.55;100.00
63493;BME280;49638;47.526;10.028;2023-05-14T02:05:35;91470.47;;;8.52;100.00
63493;BME280;49638;47.526;10.028;2023-05-14T02:08:35;91471.00;;;8.55;100.00
63493;BME280;49638;47.526;10.028;2023-05-14T02:11:36;91465.88;;;8.48;100.00
63493;BME280;49638;47.526;10.028;2023-05-14T02:14:36;91476.75;;;8.51;100.00
63493;BME280;49638;47.526;10.028;2023-05-14T02:17:37;91469.09;;;8.50;100.00
63493;BME280;49638;47.526;10.028;2023-05-14T02:20:37;91470.03;;;8.44;100.00
63493;BME280;49638;47.526;10.028;2023-05-14T02:23:37;91468.66;;;8.41;100.00
63493;BME280;49638;47.526;10.028;2023-05-14T02:26:37;91481.94;;;8.46;100.00
63493;BME280;49638;47.526;10.028;2023-05-14T02:29:38;91467.88;;;8.41;100.00
63493;BME280;49638;47.526;10.028;2023-05-14T02:32:38;91473.94;;;8.41;100.00
63493;BME280;49638;47.526;10.028;2023-05-14T02:35:38;91479.19;;;8.41;100.00
63493;BME280;49638;47.526;10.028;2023-05-14T02:38:39;91474.72;;;8.42;100.00
63493;BME280;49638;47.526;10.028;2023-05-14T02:41:39;91453.75;;;8.35;100.00
63493;BME280;49638;47.526;10.028;2023-05-14T02:44:39;91469.13;;;8.38;100.00
63493;BME280;49638;47.526;10.028;2023-05-14T02:47:39;91457.59;;;8.39;100.00
63493;BME280;49638;47.526;10.028;2023-05-14T02:50:40;91460.22;;;8.39;100.00
63493;BME280;49638;47.526;10.028;2023-05-14T02:53:40;91440.16;;;8.38;100.00
63493;BME280;49638;47.526;10.028;2023-05-14T02:56:40;91447.59;;;8.41;100.00
63493;BME280;49638;47.526;10.028;2023-05-14T02:59:41;91450.00;;;8.43;100.00
63493;BME280;49638;47.526;10.028;2023-05-14T03:02:41;91457.66;;;8.44;100.00
63493;BME280;49638;47.526;10.028;2023-05-14T03:05:42;91445.75;;;8.42;100.00
63493;BME280;49638;47.526;10.028;2023-05-14T03:08:42;91452.53;;;8.38;100.00
63493;BME280;49638;47.526;10.028;2023-05-14T03:11:42;91437.09;;;8.29;100.00
63493;BME280;49638;47.526;10.028;2023-05-14T03:14:43;91439.25;;;8.33;100.00
63493;BME280;49638;47.526;10.028;2023-05-14T03:17:43;91448.63;;;8.40;100.00
63493;BME280;49638;47.526;10.028;2023-05-14T03:20:43;91444.97;;;8.41;100.00
63493;BME280;49638;47.526;10.028;2023-05-14T03:23:43;91443.59;;;8.39;100.00
63493;BME280;49638;47.526;10.028;2023-05-14T03:26:44;91449.19;;;8.42;100.00
63493;BME280;49638;47.526;10.028;2023-05-14T03:29:44;91449.44;;;8.41;100.00
63493;BME280;49638;47.526;10.028;2023-05-14T03:32:44;91442.78;;;8.38;100.00
63493;BME280;49638;47.526;10.028;2023-05-14T03:35:45;91448.16;;;8.43;100.00
63493;BME280;49638;47.526;10.028;2023-05-14T03:38:45;91449.75;;;8.44;100.00
63493;BME280;49638;47.526;10.028;2023-05-14T03:41:46;91448.72;;;8.45;100.00
63493;BME280;49638;47.526;10.028;2023-05-14T03:44:46;91446.06;;;8.45;100.00
63493;BME280;49638;47.526;10.028;2023-05-14T03:47:46;91451.28;;;8.40;100.00
63493;BME280;49638;47.526;10.028;2023-05-14T03:50:46;91447.69;;;8.35;100.00
63493;BME280;49638;47.526;10.028;2023-05-14T03:53:47;91450.69;;;8.38;100.00
63493;BME280;49638;47.526;10.028;2023-05-14T03:56:47;91446.91;;;8.34;100.00
63493;BME280;49638;47.526;10.028;2023-05-14T03:59:47;91451.38;;;8.34;100.00
63493;BME280;49638;47.526;10.028;2023-05-14T04:02:48;91438.44;;;8.32;100.00
63493;BME280;49638;47.526;10.028;2023-05-14T04:05:49;91444.53;;;8.33;100.00
63493;BME280;49638;47.526;10.028;2023-05-14T04:08:49;91444.19;;;8.29;100.00
63493;BME280;49638;47.526;10.028;2023-05-14T04:11:50;91441.31;;;8.30;100.00
63493;BME280;49638;47.526;10.028;2023-05-14T04:14:50;91439.72;;;8.29;100.00
63493;BME280;49638;47.526;10.028;2023-05-14T04:17:50;91440.38;;;8.37;100.00
63493;BME280;49638;47.526;10.028;2023-05-14T04:20:50;91440.97;;;8.39;100.00
63493;BME280;49638;47.526;10.028;2023-05-14T04:23:51;91442.31;;;8.41;100.00
63493;BME280;49638;47.526;10.028;2023-05-14T04:26:51;91441.53;;;8.41;100.00
63493;BME280;49638;47.526;10.028;2023-05-14T04:29:51;91449.19;;;8.42;100.00
63493;BME280;49638;47.526;10.028;2023-05-14T04:32:51;91450.22;;;8.41;100.00
63493;BME280;49638;47.526;10.028;2023-05-14T04:35:52;91454.44;;;8.42;100.00
63493;BME280;49638;47.526;10.028;2023-05-14T04:38:52;91452.38;;;8.44;100.00
63493;BME280;49638;47.526;10.028;2023-05-14T04:41:52;91443.13;;;8.42;100.00
63493;BME280;49638;47.526;10.028;2023-05-14T04:44:52;91457.19;;;8.47;100.00
63493;BME280;49638;47.526;10.028;2023-05-14T04:47:53;91446.66;;;8.47;100.00
63493;BME280;49638;47.526;10.028;2023-05-14T04:50:53;91454.66;;;8.52;100.00
63493;BME280;49638;47.526;10.028;2023-05-14T04:53:53;91451.78;;;8.54;100.00
63493;BME280;49638;47.526;10.028;2023-05-14T04:56:54;91449.38;;;8.52;100.00
63493;BME280;49638;47.526;10.028;2023-05-14T04:59:55;91445.13;;;8.51;100.00
63493;BME280;49638;47.526;10.028;2023-05-14T05:02:55;91447.31;;;8.55;100.00
63493;BME280;49638;47.526;10.028;2023-05-14T05:05:55;91449.47;;;8.58;100.00
63493;BME280;49638;47.526;10.028;2023-05-14T05:08:55;91444.28;;;8.63;100.00
63493;BME280;49638;47.526;10.028;2023-05-14T05:11:56;91445.97;;;8.69;100.00
63493;BME280;49638;47.526;10.028;2023-05-14T05:14:56;91430.63;;;8.66;100.00
63493;BME280;49638;47.526;10.028;2023-05-14T05:17:56;91441.91;;;8.78;100.00
63493;BME280;49638;47.526;10.028;2023-05-14T05:20:57;91436.94;;;8.82;100.00
63493;BME280;49638;47.526;10.028;2023-05-14T05:23:57;91429.06;;;8.82;100.00
63493;BME280;49638;47.526;10.028;2023-05-14T05:26:57;91441.59;;;8.91;100.00
63493;BME280;49638;47.526;10.028;2023-05-14T05:29:59;91441.91;;;8.95;100.00
63493;BME280;49638;47.526;10.028;2023-05-14T05:33:00;91440.16;;;9.00;100.00
63493;BME280;49638;47.526;10.028;2023-05-14T05:36:00;91446.94;;;9.13;100.00
63493;BME280;49638;47.526;10.028;2023-05-14T05:39:00;91439.69;;;9.20;100.00
63493;BME280;49638;47.526;10.028;2023-05-14T05:42:01;91443.16;;;9.26;100.00
63493;BME280;49638;47.526;10.028;2023-05-14T05:45:01;91444.22;;;9.25;100.00
63493;BME280;49638;47.526;10.028;2023-05-14T05:48:02;91443.47;;;9.30;100.00
63493;BME280;49638;47.526;10.028;2023-05-14T05:51:02;91441.16;;;9.33;100.00
63493;BME280;49638;47.526;10.028;2023-05-14T05:54:03;91439.97;;;9.41;100.00
63493;BME280;49638;47.526;10.028;2023-05-14T05:57:03;91445.03;;;9.47;100.00
63493;BME280;49638;47.526;10.028;2023-05-14T06:00:04;91443.84;;;9.55;100.00
63493;BME280;49638;47.526;10.028;2023-05-14T06:03:14;91444.47;;;9.62;100.00
63493;BME280;49638;47.526;10.028;2023-05-14T06:06:14;91442.16;;;9.66;100.00
63493;BME280;49638;47.526;10.028;2023-05-14T06:09:14;91440.56;;;9.65;100.00
63493;BME280;49638;47.526;10.028;2023-05-14T06:12:15;91443.25;;;9.70;100.00
63493;BME280;49638;47.526;10.028;2023-05-14T06:15:15;91445.66;;;9.71;100.00
63493;BME280;49638;47.526;10.028;2023-05-14T06:18:15;91437.50;;;9.73;100.00
63493;BME280;49638;47.526;10.028;2023-05-14T06:21:15;91450.44;;;9.75;100.00
63493;BME280;49638;47.526;10.028;2023-05-14T06:24:16;91443.06;;;9.77;100.00
63493;BME280;49638;47.526;10.028;2023-05-14T06:27:16;91440.19;;;9.78;100.00
63493;BME280;49638;47.526;10.028;2023-05-14T06:30:16;91442.91;;;9.83;100.00
63493;BME280;49638;47.526;10.028;2023-05-14T06:33:17;91441.31;;;9.82;100.00
63493;BME280;49638;47.526;10.028;2023-05-14T06:36:17;91438.72;;;9.87;100.00
63493;BME280;49638;47.526;10.028;2023-05-14T06:39:17;91443.50;;;9.90;100.00
63493;BME280;49638;47.526;10.028;2023-05-14T06:42:18;91445.66;;;9.93;100.00
63493;BME280;49638;47.526;10.028;2023-05-14T06:45:18;91439.63;;;9.98;100.00
63493;BME280;49638;47.526;10.028;2023-05-14T06:48:18;91437.56;;;10.00;100.00
63493;BME280;49638;47.526;10.028;2023-05-14T06:51:18;91440.47;;;9.99;100.00
63493;BME280;49638;47.526;10.028;2023-05-14T06:54:19;91442.66;;;10.07;100.00
63493;BME280;49638;47.526;10.028;2023-05-14T06:57:19;91443.75;;;10.11;100.00
63493;BME280;49638;47.526;10.028;2023-05-14T07:00:20;91443.25;;;10.14;100.00
63493;BME280;49638;47.526;10.028;2023-05-14T07:03:20;91446.78;;;10.19;100.00
63493;BME280;49638;47.526;10.028;2023-05-14T07:06:21;91441.00;;;10.23;100.00
63493;BME280;49638;47.526;10.028;2023-05-14T07:09:22;91450.50;;;10.24;100.00
63493;BME280;49638;47.526;10.028;2023-05-14T07:12:22;91432.50;;;10.21;100.00
63493;BME280;49638;47.526;10.028;2023-05-14T07:15:22;91437.16;;;10.30;99.69
63493;BME280;49638;47.526;10.028;2023-05-14T07:18:23;91436.59;;;10.28;99.46
63493;BME280;49638;47.526;10.028;2023-05-14T07:21:23;91434.31;;;10.37;99.39
63493;BME280;49638;47.526;10.028;2023-05-14T07:24:23;91442.22;;;10.37;98.93
63493;BME280;49638;47.526;10.028;2023-05-14T07:27:24;91426.09;;;10.33;98.44
63493;BME280;49638;47.526;10.028;2023-05-14T07:30:24;91431.66;;;10.37;99.20
63493;BME280;49638;47.526;10.028;2023-05-14T07:33:25;91428.47;;;10.35;98.24
63493;BME280;49638;47.526;10.028;2023-05-14T07:36:25;91427.09;;;10.32;97.91
63493;BME280;49638;47.526;10.028;2023-05-14T07:39:26;91422.84;;;10.26;98.27
63493;BME280;49638;47.526;10.028;2023-05-14T07:42:26;91430.28;;;10.29;98.55
63493;BME280;49638;47.526;10.028;2023-05-14T07:45:27;91433.94;;;10.28;99.06
63493;BME280;49638;47.526;10.028;2023-05-14T07:48:27;91421.19;;;10.25;99.20
63493;BME280;49638;47.526;10.028;2023-05-14T07:51:27;91435.56;;;10.29;98.76
63493;BME280;49638;47.526;10.028;2023-05-14T07:54:27;91419.56;;;10.19;98.70
63493;BME280;49638;47.526;10.028;2023-05-14T07:57:28;91436.25;;;10.25;98.44
63493;BME280;49638;47.526;10.028;2023-05-14T08:00:28;91434.66;;;10.24;98.10
63493;BME280;49638;47.526;10.028;2023-05-14T08:03:28;91433.31;;;10.21;98.03
63493;BME280;49638;47.526;10.028;2023-05-14T08:06:28;91433.88;;;10.23;98.59
63493;BME280;49638;47.526;10.028;2023-05-14T08:09:29;91422.75;;;10.21;98.73
63493;BME280;49638;47.526;10.028;2023-05-14T08:12:29;91424.31;;;10.22;98.62
63493;BME280;49638;47.526;10.028;2023-05-14T08:15:29;91429.59;;;10.22;98.31
63493;BME280;49638;47.526;10.028;2023-05-14T08:18:30;91425.09;;;10.17;98.03
63493;BME280;49638;47.526;10.028;2023-05-14T08:21:30;91427.41;;;10.14;97.73
63493;BME280;49638;47.526;10.028;2023-05-14T08:24:31;91422.63;;;10.11;97.96
63493;BME280;49638;47.526;10.028;2023-05-14T08:27:32;91428.69;;;10.11;98.21
63493;BME280;49638;47.526;10.028;2023-05-14T08:30:32;91428.22;;;10.14;98.91
63493;BME280;49638;47.526;10.028;2023-05-14T08:33:32;91419.25;;;10.15;98.95
63493;BME280;49638;47.526;10.028;2023-05-14T08:36:33;91415.28;;;10.13;99.96
63493;BME280;49638;47.526;10.028;2023-05-14T08:39:33;91419.75;;;10.12;99.92
63493;BME280;49638;47.526;10.028;2023-05-14T08:42:33;91415.19;;;10.08;99.99
63493;BME280;49638;47.526;10.028;2023-05-14T08:45:35;91415.28;;;10.13;99.77
63493;BME280;49638;47.526;10.028;2023-05-14T08:48:39;91417.91;;;10.13;100.00
63493;BME280;49638;47.526;10.028;2023-05-14T08:51:43;91410.78;;;10.13;100.00
63493;BME280;49638;47.526;10.028;2023-05-14T08:54:45;91415.28;;;10.13;99.69
63493;BME280;49638;47.526;10.028;2023-05-14T08:57:46;91404.63;;;10.08;100.00
63493;BME280;49638;47.526;10.028;2023-05-14T09:00:46;91403.06;;;10.07;100.00
63493;BME280;49638;47.526;10.028;2023-05-14T09:03:46;91417.34;;;10.11;99.97
63493;BME280;49638;47.526;10.028;2023-05-14T09:06:49;91413.34;;;10.08;99.62
63493;BME280;49638;47.526;10.028;2023-05-14T09:09:50;91414.09;;;10.04;99.58
63493;BME280;49638;47.526;10.028;2023-05-14T09:12:51;91412.22;;;9.99;99.75
63493;BME280;49638;47.526;10.028;2023-05-14T09:15:51;91417.97;;;9.96;99.95
63493;BME280;49638;47.526;10.028;2023-05-14T09:18:51;91414.78;;;9.94;99.81
63493;BME280;49638;47.526;10.028;2023-05-14T09:21:56;91411.31;;;9.88;100.00
63493;BME280;49638;47.526;10.028;2023-05-14T09:25:05;91402.50;;;9.83;100.00
63493;BME280;49638;47.526;10.028;2023-05-14T09:28:07;91413.31;;;9.81;100.00
63493;BME280;49638;47.526;10.028;2023-05-14T09:31:08;91404.28;;;9.77;100.00
63493;BME280;49638;47.526;10.028;2023-05-14T09:34:08;91408.28;;;9.80;100.00
63493;BME280;49638;47.526;10.028;2023-05-14T09:37:08;91402.13;;;9.74;100.00
63493;BME280;49638;47.526;10.028;2023-05-14T09:40:11;91400.53;;;9.73;100.00
63493;BME280;49638;47.526;10.028;2023-05-14T09:43:12;91407.72;;;9.78;100.00
63493;BME280;49638;47.526;10.028;2023-05-14T09:46:13;91402.94;;;9.75;99.71
63493;BME280;49638;47.526;10.028;2023-05-14T09:49:13;91384.09;;;9.66;100.00
63493;BME280;49638;47.526;10.028;2023-05-14T09:52:14;91395.84;;;9.75;100.00
63493;BME280;49638;47.526;10.028;2023-05-14T09:55:14;91393.19;;;9.75;99.72
63493;BME280;49638;47.526;10.028;2023-05-14T09:58:15;91389.81;;;9.80;99.60
63493;BME280;49638;47.526;10.028;2023-05-14T10:01:17;91393.63;;;9.89;99.93
63493;BME280;49638;47.526;10.028;2023-05-14T10:04:19;91398.75;;;10.01;100.00
63493;BME280;49638;47.526;10.028;2023-05-14T10:07:22;91396.78;;;10.13;100.00
63493;BME280;49638;47.526;10.028;2023-05-14T10:10:26;91398.19;;;10.21;100.00
63493;BME280;49638;47.526;10.028;2023-05-14T10:13:36;91391.69;;;10.28;100.00
63493;BME280;49638;47.526;10.028;2023-05-14T10:16:40;91390.41;;;10.31;99.28
63493;BME280;49638;47.526;10.028;2023-05-14T10:19:48;91395.94;;;10.29;99.27
63493;BME280;49638;47.526;10.028;2023-05-14T10:22:49;91390.94;;;10.33;100.00
63493;BME280;49638;47.526;10.028;2023-05-14T10:25:50;91385.91;;;10.31;100.00
63493;BME280;49638;47.526;10.028;2023-05-14T10:28:50;91385.97;;;10.36;100.00
63493;BME280;49638;47.526;10.028;2023-05-14T10:31:54;91389.69;;;10.40;100.00
63493;BME280;49638;47.526;10.028;2023-05-14T10:34:54;91398.16;;;10.42;100.00
63493;BME280;49638;47.526;10.028;2023-05-14T10:37:55;91390.19;;;10.37;99.67
63493;BME280;49638;47.526;10.028;2023-05-14T10:40:58;91393.63;;;10.38;99.56
63493;BME280;49638;47.526;10.028;2023-05-14T10:44:07;91387.50;;;10.32;100.00
63493;BME280;49638;47.526;10.028;2023-05-14T10:47:09;91389.59;;;10.30;100.00
63493;BME280;49638;47.526;10.028;2023-05-14T10:50:11;91385.03;;;10.26;100.00
63493;BME280;49638;47.526;10.028;2023-05-14T10:53:12;91387.69;;;10.26;100.00
63493;BME280;49638;47.526;10.028;2023-05-14T10:56:13;91377.00;;;10.15;100.00
63493;BME280;49638;47.526;10.028;2023-05-14T10:59:15;91384.97;;;10.21;100.00
63493;BME280;49638;47.526;10.028;2023-05-14T11:02:27;91377.31;;;10.19;99.56
63493;BME280;49638;47.526;10.028;2023-05-14T11:05:27;91378.91;;;10.20;99.95
63493;BME280;49638;47.526;10.028;2023-05-14T11:08:29;91376.75;;;10.17;99.30
63493;BME280;49638;47.526;10.028;2023-05-14T11:11:30;91376.50;;;10.18;100.00
63493;BME280;49638;47.526;10.028;2023-05-14T11:14:30;91373.63;;;10.20;99.94
63493;BME280;49638;47.526;10.028;2023-05-14T11:17:31;91359.81;;;10.13;99.71
63493;BME280;49638;47.526;10.028;2023-05-14T11:20:31;91369.13;;;10.21;99.88
63493;BME280;49638;47.526;10.028;2023-05-14T11:23:32;91370.47;;;10.23;100.00
63493;BME280;49638;47.526;10.028;2023-05-14T11:26:32;91353.28;;;10.21;100.00
63493;BME280;49638;47.526;10.028;2023-05-14T11:29:36;91355.16;;;10.25;99.56
63493;BME280;49638;47.526;10.028;2023-05-14T11:32:36;91365.34;;;10.33;99.52
63493;BME280;49638;47.526;10.028;2023-05-14T11:35:39;91368.50;;;10.35;99.64
63493;BME280;49638;47.526;10.028;2023-05-14T11:38:47;91362.69;;;10.33;97.35
63493;BME280;49638;47.526;10.028;2023-05-14T11:41:47;91361.91;;;10.33;98.87
63493;BME280;49638;47.526;10.028;2023-05-14T11:44:50;91365.06;;;10.35;98.64
63493;BME280;49638;47.526;10.028;2023-05-14T11:47:53;91364.53;;;10.33;98.83
63493;BME280;49638;47.526;10.028;2023-05-14T11:50:53;91363.69;;;10.27;99.17
63493;BME280;49638;47.526;10.028;2023-05-14T11:53:54;91370.56;;;10.28;99.08
63493;BME280;49638;47.526;10.028;2023-05-14T11:56:55;91367.91;;;10.28;99.19
63493;BME280;49638;47.526;10.028;2023-05-14T11:59:56;91355.50;;;10.29;99.34
63493;BME280;49638;47.526;10.028;2023-05-14T12:02:56;91354.19;;;10.26;99.32
63493;BME280;49638;47.526;10.028;2023-05-14T12:05:58;91353.56;;;10.19;99.88
63493;BME280;49638;47.526;10.028;2023-05-14T12:08:58;91348.00;;;10.21;100.00
63493;BME280;49638;47.526;10.028;2023-05-14T12:12:07;91343.19;;;10.12;100.00
63493;BME280;49638;47.526;10.028;2023-05-14T12:15:12;91346.41;;;10.19;100.00
63493;BME280;49638;47.526;10.028;2023-05-14T12:18:13;91343.78;;;10.19;100.00
63493;BME280;49638;47.526;10.028;2023-05-14T12:21:13;91347.22;;;10.20;100.00
63493;BME280;49638;47.526;10.028;2023-05-14T12:24:16;91345.09;;;10.22;100.00
63493;BME280;49638;47.526;10.028;2023-05-14T12:27:20;91344.59;;;10.25;100.00
63493;BME280;49638;47.526;10.028;2023-05-14T12:30:21;91336.94;;;10.24;100.00
63493;BME280;49638;47.526;10.028;2023-05-14T12:33:21;91341.75;;;10.27;100.00
63493;BME280;49638;47.526;10.028;2023-05-14T12:36:22;91337.28;;;10.27;100.00
63493;BME280;49638;47.526;10.028;2023-05-14T12:39:23;91333.56;;;10.28;100.00
63493;BME280;49638;47.526;10.028;2023-05-14T12:42:24;91325.59;;;10.23;100.00
63493;BME280;49638;47.526;10.028;2023-05-14T12:45:24;91326.22;;;10.30;100.00
63493;BME280;49638;47.526;10.028;2023-05-14T12:48:24;91328.59;;;10.32;100.00
63493;BME280;49638;47.526;10.028;2023-05-14T12:51:25;91328.84;;;10.30;100.00
63493;BME280;49638;47.526;10.028;2023-05-14T12:54:25;91329.34;;;10.27;100.00
63493;BME280;49638;47.526;10.028;2023-05-14T12:57:25;91320.94;;;10.30;100.00
63493;BME280;49638;47.526;10.028;2023-05-14T13:00:26;91331.59;;;10.40;100.00
63493;BME280;49638;47.526;10.028;2023-05-14T13:03:27;91329.19;;;10.39;100.00
63493;BME280;49638;47.526;10.028;2023-05-14T13:06:27;91318.03;;;10.32;100.00
63493;BME280;49638;47.526;10.028;2023-05-14T13:09:27;91328.38;;;10.38;100.00
63493;BME280;49638;47.526;10.028;2023-05-14T13:12:27;91321.22;;;10.34;100.00
63493;BME280;49638;47.526;10.028;2023-05-14T13:15:29;91328.84;;;10.30;100.00
63493;BME280;49638;47.526;10.028;2023-05-14T13:18:30;91319.25;;;10.24;100.00
63493;BME280;49638;47.526;10.028;2023-05-14T13:21:31;91327.16;;;10.24;100.00
63493;BME280;49638;47.526;10.028;2023-05-14T13:24:31;91326.09;;;10.20;100.00
63493;BME280;49638;47.526;10.028;2023-05-14T13:27:31;91307.25;;;10.11;100.00
63493;BME280;49638;47.526;10.028;2023-05-14T13:30:32;91319.16;;;10.14;100.00
63493;BME280;49638;47.526;10.028;2023-05-14T13:33:34;91321.25;;;10.12;100.00
63493;BME280;49638;47.526;10.028;2023-05-14T13:36:34;91301.13;;;10.06;100.00
63493;BME280;49638;47.526;10.028;2023-05-14T13:39:38;91303.78;;;10.06;100.00
63493;BME280;49638;47.526;10.028;2023-05-14T13:42:38;91309.34;;;10.09;100.00
63493;BME280;49638;47.526;10.028;2023-05-14T13:45:39;91311.72;;;10.11;100.00
63493;BME280;49638;47.526;10.028;2023-05-14T13:48:39;91316.22;;;10.10;100.00
63493;BME280;49638;47.526;10.028;2023-05-14T13:51:39;91310.94;;;10.10;100.00
63493;BME280;49638;47.526;10.028;2023-05-14T13:54:39;91310.53;;;10.24;100.00
63493;BME280;49638;47.526;10.028;2023-05-14T13:57:40;91303.66;;;10.23;100.00
63493;BME280;49638;47.526;10.028;2023-05-14T14:00:42;91300.84;;;10.29;100.00
63493;BME280;49638;47.526;10.028;2023-05-14T14:03:42;91315.19;;;10.38;100.00
63493;BME280;49638;47.526;10.028;2023-05-14T14:06:42;91306.53;;;10.48;100.00
63493;BME280;49638;47.526;10.028;2023-05-14T14:09:43;91307.91;;;10.56;100.00
63493;BME280;49638;47.526;10.028;2023-05-14T14:12:44;91305.31;;;10.61;100.00
63493;BME280;49638;47.526;10.028;2023-05-14T14:15:44;91303.75;;;10.65;100.00
63493;BME280;49638;47.526;10.028;2023-05-14T14:18:44;91303.22;;;10.63;100.00
63493;BME280;49638;47.526;10.028;2023-05-14T14:21:45;91301.88;;;10.60;100.00
63493;BME280;49638;47.526;10.028;2023-05-14T14:24:45;91309.75;;;10.55;100.00
63493;BME280;49638;47.526;10.028;2023-05-14T14:27:45;91303.66;;;10.50;100.00
63493;BME280;49638;47.526;10.028;2023-05-14T14:30:46;91299.09;;;10.40;99.92
63493;BME280;49638;47.526;10.028;2023-05-14T14:33:46;91304.16;;;10.47;99.97
63493;BME280;49638;47.526;10.028;2023-05-14T14:36:46;91299.88;;;10.40;99.84
63493;BME280;49638;47.526;10.028;2023-05-14T14:39:46;91295.13;;;10.42;99.98
63493;BME280;49638;47.526;10.028;2023-05-14T14:42:47;91298.88;;;10.47;100.00
63493;BME280;49638;47.526;10.028;2023-05-14T14:45:47;91287.84;;;10.55;100.00
63493;BME280;49638;47.526;10.028;2023-05-14T14:48:47;91279.44;;;10.63;100.00
63493;BME280;49638;47.526;10.028;2023-05-14T14:51:47;91284.25;;;10.71;100.00
63493;BME280;49638;47.526;10.028;2023-05-14T14:54:48;91275.84;;;10.79;100.00
63493;BME280;49638;47.526;10.028;2023-05-14T14:57:48;91274.88;;;10.96;100.00
63493;BME280;49638;47.526;10.028;2023-05-14T15:00:52;91274.66;;;11.02;99.70
63493;BME280;49638;47.526;10.028;2023-05-14T15:03:53;91276.03;;;11.10;99.92
63493;BME280;49638;47.526;10.028;2023-05-14T15:06:54;91268.13;;;11.20;100.00
63493;BME280;49638;47.526;10.028;2023-05-14T15:09:54;91268.22;;;11.35;99.82
63493;BME280;49638;47.526;10.028;2023-05-14T15:12:56;91265.56;;;11.41;98.59
63493;BME280;49638;47.526;10.028;2023-05-14T15:15:57;91267.19;;;11.47;98.48
63493;BME280;49638;47.526;10.028;2023-05-14T15:18:57;91266.72;;;11.60;98.62
63493;BME280;49638;47.526;10.028;2023-05-14T15:21:58;91267.03;;;11.69;98.35
63493;BME280;49638;47.526;10.028;2023-05-14T15:24:58;91268.31;;;11.66;97.45
63493;BME280;49638;47.526;10.028;2023-05-14T15:27:58;91269.88;;;11.57;96.95
63493;BME280;49638;47.526;10.028;2023-05-14T15:30:58;91265.88;;;11.49;96.87
63493;BME280;49638;47.526;10.028;2023-05-14T15:33:59;91259.22;;;11.36;96.31
63493;BME280;49638;47.526;10.028;2023-05-14T15:36:59;91271.66;;;11.36;96.18
63493;BME280;49638;47.526;10.028;2023-05-14T15:40:00;91271.63;;;11.31;96.19
63493;BME280;49638;47.526;10.028;2023-05-14T15:43:00;91284.28;;;11.24;96.44
63493;BME280;49638;47.526;10.028;2023-05-14T15:46:00;91280.28;;;11.16;97.20